Fresh Meadows, NY (11365)

10:06 PM EDT on May 27, 2015 (GMT -0400)
Meadow Lake | | Change Station
CLOSE
Current Station
Personal Weather Station
Location: New York, NY
Elevation: -10 ft
Nearby Weather Stations

Elev -10 ft 40.73 °N, 73.84 °W | Updated 7 minutes ago

Overcast
Overcast
65.6 °F
Feels Like 65.6 °F
N
3.4
Wind Variable Wind from South
Gusts 5.1 mph

Today
High -- | Low -- °F
--% Chance of Precip.
Yesterday
High -- | Low -- °F
Precip. -- in
5:28 AM 8:16 PM
Waxing Gibbous, 72% visible
Pressure 30.15 in
Visibility 10.0 miles
Clouds Few 4500 ft
Scattered Clouds 8000 ft
Scattered Clouds 11000 ft
Dew Point 62 °F
Humidity 89%
Rainfall -999.00 in
Snow Depth Not available.
UV 0 out of 12
Pollen 4.90 out of 12
Air Quality Not available.
Flu Activity Widespread
METAR KLGA 280151Z 18004KT 10SM TS FEW045CB SCT080 SCT110 21/17 A3015 RMK AO2 TSB50RAE38 SLP208 OCNL LTGICCG W TS W MOV NE P0001 T02060172 $

More Conditions Fewer Conditions

Pressure 30.15 in
Visibility 10.0 miles
Clouds Few 4500 ft
Scattered Clouds 8000 ft
Scattered Clouds 11000 ft
Dew Point 62 °F
Humidity 89%
Rainfall -999.00 in
Snow Depth Not available.
UV 0 out of 12
Pollen 4.90 out of 12
Air Quality Not available.
Flu Activity Widespread
METAR KLGA 280151Z 18004KT 10SM TS FEW045CB SCT080 SCT110 21/17 A3015 RMK AO2 TSB50RAE38 SLP208 OCNL LTGICCG W TS W MOV NE P0001 T02060172 $

More Conditions Fewer Conditions

10-Day Weather Forecast

Almanac

Astronomy

May. 27, 2015 Rise Set
Actual Time
Civil Twilight
Nautical Twilight
Astronomical Twilight
Moon
Length of Visible Light
Length of Day
Tomorrow will be .
, % of the Moon is Illuminated

Today's Extremes

State Highs State Lows

Community

WunderPhotos

Upload Photos

1,824,857 photos uploaded!

WunderBlogs® & News

Nearby

Air Quality

  Air Quality AQ Index Pollutant
Not available.

Snow Depth

Station Depth Elevation

Earthquake Activity

City Distance Mag. Time & Date
Minimum magnitude displayed is 2.5.

Coastal Water Temperatures

Place Temperature

Stations

Nearby Weather Stations

Station Location Temp. Windchill Dew Point Humidity Wind Precip. Elev Updated Type